createdAt,value
2022-11-10T00:00:36.347Z,15.88
2022-11-10T00:03:03.735Z,16.31
2022-11-10T00:05:30.466Z,15.76
2022-11-10T00:07:57.231Z,15.46
2022-11-10T00:10:24.097Z,15.61
2022-11-10T00:12:52.430Z,15.97
2022-11-10T00:15:37.467Z,16.09
2022-11-10T00:18:04.321Z,15.44
2022-11-10T00:20:31.426Z,16.13
2022-11-10T00:22:58.095Z,14.62
2022-11-10T00:25:24.966Z,15.03
2022-11-10T00:27:51.604Z,15.94
2022-11-10T00:30:18.370Z,15.31
2022-11-10T00:32:46.709Z,16.15
2022-11-10T00:35:13.387Z,15.94
2022-11-10T00:37:40.092Z,15.39
2022-11-10T00:40:07.013Z,15.39
2022-11-10T00:42:33.662Z,16.72
2022-11-10T00:45:00.341Z,16.69
2022-11-10T00:47:26.992Z,16.71
2022-11-10T00:49:53.644Z,15.13
2022-11-10T00:52:20.272Z,14.86
2022-11-10T00:54:46.943Z,15.26
2022-11-10T00:57:13.551Z,15.50
2022-11-10T00:59:40.200Z,14.82
2022-11-10T01:02:06.994Z,14.75
2022-11-10T01:04:33.729Z,16.22
2022-11-10T01:07:00.516Z,16.84
2022-11-10T01:09:27.238Z,15.30
2022-11-10T01:11:53.854Z,15.26
2022-11-10T01:14:20.511Z,15.15
2022-11-10T01:16:47.197Z,14.98
2022-11-10T01:19:13.867Z,15.38
2022-11-10T01:21:40.497Z,15.86
2022-11-10T01:24:07.206Z,15.35
2022-11-10T01:26:33.948Z,15.58
2022-11-10T01:29:00.609Z,14.94
2022-11-10T01:31:27.317Z,16.04
2022-11-10T01:33:53.999Z,15.78
2022-11-10T01:36:20.707Z,15.82
2022-11-10T01:38:47.350Z,16.25
2022-11-10T01:41:14.133Z,15.39
2022-11-10T01:43:40.902Z,15.21
2022-11-10T01:46:08.459Z,15.45
2022-11-10T01:48:36.925Z,16.26
2022-11-10T01:51:07.651Z,16.24
2022-11-10T01:53:34.915Z,16.48
2022-11-10T01:56:01.668Z,17.22
2022-11-10T01:58:29.994Z,17.01
2022-11-10T02:00:56.771Z,17.43
2022-11-10T02:03:23.832Z,17.15
2022-11-10T02:05:50.852Z,17.18
2022-11-10T02:08:18.244Z,16.43
2022-11-10T02:10:44.927Z,16.55
2022-11-10T02:13:11.769Z,16.63
2022-11-10T02:15:38.445Z,15.91
2022-11-10T02:18:05.081Z,16.10
2022-11-10T02:20:31.779Z,15.64
2022-11-10T02:22:58.439Z,16.31
2022-11-10T02:25:25.865Z,15.97
2022-11-10T02:27:52.496Z,15.80
2022-11-10T02:30:20.455Z,15.69
2022-11-10T02:32:49.565Z,15.73
2022-11-10T02:35:16.240Z,15.70
2022-11-10T02:37:42.878Z,15.47
2022-11-10T02:40:10.363Z,14.28
2022-11-10T02:42:37.035Z,13.27
2022-11-10T02:45:03.796Z,14.74
2022-11-10T02:47:30.525Z,15.00
2022-11-10T02:49:57.185Z,14.05
2022-11-10T02:52:23.833Z,14.65
2022-11-10T02:54:50.466Z,15.54
2022-11-10T02:57:17.096Z,16.24
2022-11-10T02:59:43.741Z,16.40
2022-11-10T03:02:10.382Z,15.81
2022-11-10T03:04:37.032Z,15.18
2022-11-10T03:07:03.830Z,14.45
2022-11-10T03:09:30.494Z,15.09
2022-11-10T03:11:57.132Z,13.45
2022-11-10T03:14:23.802Z,13.85
2022-11-10T03:16:50.488Z,14.85
2022-11-10T03:19:17.103Z,15.21
2022-11-10T03:21:43.741Z,14.96
2022-11-10T03:24:10.475Z,14.16
2022-11-10T03:26:37.146Z,12.45
2022-11-10T03:29:03.800Z,12.66
2022-11-10T03:31:30.442Z,12.66
2022-11-10T03:33:57.094Z,11.68
2022-11-10T03:36:23.760Z,12.56
2022-11-10T03:38:50.417Z,12.06
2022-11-10T03:41:19.717Z,12.44
2022-11-10T03:43:46.683Z,12.40
2022-11-10T03:46:13.354Z,13.19
2022-11-10T03:48:40.051Z,13.35
2022-11-10T03:51:06.860Z,13.35
2022-11-10T03:53:33.507Z,12.61
2022-11-10T03:56:01.149Z,12.71
2022-11-10T03:58:27.786Z,12.07
2022-11-10T04:00:54.674Z,11.06
2022-11-10T04:03:21.791Z,12.04
2022-11-10T04:06:07.259Z,12.04
2022-11-10T04:08:52.337Z,12.77
2022-11-10T04:11:38.894Z,12.95
2022-11-10T04:14:24.185Z,12.44
2022-11-10T04:16:50.861Z,14.16
2022-11-10T04:19:17.520Z,13.58
2022-11-10T04:21:44.175Z,14.78
2022-11-10T04:24:10.846Z,14.56
2022-11-10T04:26:41.148Z,14.81
2022-11-10T04:29:11.260Z,13.84
2022-11-10T04:31:38.854Z,14.46
2022-11-10T04:34:06.273Z,13.68
2022-11-10T04:36:33.483Z,14.10
2022-11-10T04:39:00.185Z,14.87
2022-11-10T04:41:27.251Z,13.40
2022-11-10T04:43:53.903Z,13.72
2022-11-10T04:46:24.546Z,13.69
2022-11-10T04:48:51.473Z,12.94
2022-11-10T04:51:18.386Z,13.50
2022-11-10T04:53:45.058Z,13.95
2022-11-10T04:56:14.165Z,13.15
2022-11-10T04:58:40.787Z,13.29
2022-11-10T05:01:07.473Z,14.31
2022-11-10T05:03:34.189Z,13.55
2022-11-10T05:06:00.823Z,13.59
2022-11-10T05:08:27.464Z,13.54
2022-11-10T05:10:54.089Z,14.01
2022-11-10T05:13:21.030Z,14.88
2022-11-10T05:15:47.942Z,14.57
2022-11-10T05:18:14.657Z,14.25
2022-11-10T05:20:41.337Z,14.38
2022-11-10T05:23:26.362Z,13.85
2022-11-10T05:25:53.032Z,13.68
2022-11-10T05:28:19.935Z,12.74
2022-11-10T05:30:46.579Z,11.80
2022-11-10T05:33:13.355Z,12.43
2022-11-10T05:35:40.327Z,12.71
2022-11-10T05:38:07.117Z,12.22
2022-11-10T05:40:34.114Z,12.33
2022-11-10T05:43:00.802Z,11.88
2022-11-10T05:45:27.995Z,12.64
2022-11-10T05:47:55.016Z,12.71
2022-11-10T05:50:22.123Z,12.78
2022-11-10T05:52:50.501Z,13.73
2022-11-10T05:55:17.989Z,14.75
2022-11-10T05:57:47.908Z,14.01
2022-11-10T06:00:15.176Z,15.04
2022-11-10T06:02:41.828Z,16.08
2022-11-10T06:05:08.946Z,16.74
2022-11-10T06:07:35.741Z,16.77
2022-11-10T06:10:02.540Z,16.51
2022-11-10T06:12:30.543Z,15.75
2022-11-10T06:14:58.222Z,15.88
2022-11-10T06:17:28.002Z,15.68
2022-11-10T06:19:54.650Z,15.68
2022-11-10T06:22:21.295Z,15.33
2022-11-10T06:24:47.990Z,15.14
2022-11-10T06:27:14.688Z,14.65
2022-11-10T06:29:41.300Z,15.75
2022-11-10T06:32:07.984Z,15.59
2022-11-10T06:34:34.657Z,15.60
2022-11-10T06:37:01.284Z,15.64
2022-11-10T06:39:27.944Z,16.53
2022-11-10T06:41:54.745Z,17.01
2022-11-10T06:44:21.424Z,16.73
2022-11-10T06:46:48.043Z,16.86
2022-11-10T06:49:14.697Z,16.93
2022-11-10T06:51:41.347Z,17.77
2022-11-10T06:54:08.029Z,17.42
2022-11-10T06:56:35.169Z,17.01
2022-11-10T06:59:01.809Z,17.60
2022-11-10T07:01:28.506Z,18.45
2022-11-10T07:04:18.112Z,18.55
2022-11-10T07:06:42.045Z,18.44
2022-11-10T07:09:08.774Z,19.44
2022-11-10T07:11:35.417Z,20.03
2022-11-10T07:14:02.078Z,19.77
2022-11-10T07:16:28.768Z,20.02
2022-11-10T07:18:55.423Z,20.51
2022-11-10T07:21:22.067Z,20.57
2022-11-10T07:23:48.685Z,20.68
2022-11-10T07:26:15.315Z,21.19
2022-11-10T07:28:42.930Z,21.51
2022-11-10T07:31:09.566Z,21.30
2022-11-10T07:33:36.250Z,20.72
2022-11-10T07:36:07.490Z,21.27
2022-11-10T07:38:34.157Z,21.90
2022-11-10T07:41:00.937Z,22.37
2022-11-10T07:43:27.622Z,20.82
2022-11-10T07:45:54.261Z,20.33
2022-11-10T07:48:20.947Z,20.91
2022-11-10T07:50:47.623Z,19.87
2022-11-10T07:53:15.227Z,20.34
2022-11-10T07:55:42.940Z,20.05
2022-11-10T07:58:09.979Z,21.55
2022-11-10T08:00:37.107Z,21.32
2022-11-10T08:03:03.768Z,20.56
2022-11-10T08:05:30.651Z,19.41
2022-11-10T08:07:57.385Z,19.46
2022-11-10T08:10:24.129Z,19.16
2022-11-10T08:12:54.946Z,20.05
2022-11-10T08:15:21.645Z,21.02
2022-11-10T08:17:48.278Z,19.92
2022-11-10T08:20:14.997Z,19.16
2022-11-10T08:22:42.125Z,20.45
2022-11-10T08:25:08.943Z,20.20
2022-11-10T08:27:35.560Z,19.62
2022-11-10T08:30:02.245Z,20.06
2022-11-10T08:32:28.885Z,18.70
2022-11-10T08:34:56.565Z,17.99
2022-11-10T08:37:23.200Z,18.38
2022-11-10T08:39:49.846Z,17.24
2022-11-10T08:42:16.480Z,17.03
2022-11-10T08:44:43.112Z,16.78
2022-11-10T08:47:09.729Z,16.86
2022-11-10T08:49:36.420Z,17.19
2022-11-10T08:52:03.088Z,16.42
2022-11-10T08:54:29.730Z,16.05
2022-11-10T08:56:56.368Z,16.41
2022-11-10T08:59:23.065Z,16.20
2022-11-10T09:01:49.707Z,17.39
2022-11-10T09:04:16.479Z,16.96
2022-11-10T09:06:43.218Z,17.27
2022-11-10T09:09:10.667Z,16.67
2022-11-10T09:11:37.304Z,16.57
2022-11-10T09:14:03.971Z,15.70
2022-11-10T09:16:30.673Z,15.60
2022-11-10T09:18:57.319Z,15.66
2022-11-10T09:21:23.972Z,15.76
2022-11-10T09:23:50.602Z,15.66
2022-11-10T09:26:17.306Z,15.47
2022-11-10T09:28:43.932Z,16.01
2022-11-10T09:31:10.638Z,16.24
2022-11-10T09:33:37.340Z,15.93
2022-11-10T09:36:04.023Z,15.23
2022-11-10T09:38:30.676Z,15.98
2022-11-10T09:41:03.009Z,15.75
2022-11-10T09:43:38.836Z,15.40
2022-11-10T09:46:16.791Z,15.32
2022-11-10T09:48:44.888Z,15.58
2022-11-10T09:51:13.242Z,16.24
2022-11-10T09:53:44.857Z,17.83
2022-11-10T09:56:12.789Z,16.78
2022-11-10T09:58:40.880Z,17.73
2022-11-10T10:02:15.487Z,17.62
2022-11-10T10:05:06.881Z,17.62
2022-11-10T10:07:59.776Z,15.67
2022-11-10T10:10:45.761Z,15.80
2022-11-10T10:13:37.066Z,15.20
2022-11-10T10:16:12.740Z,14.98
2022-11-10T10:18:51.703Z,14.05
2022-11-10T10:21:33.777Z,14.15
2022-11-10T10:24:13.779Z,14.47
2022-11-10T10:26:51.665Z,13.91
2022-11-10T10:29:48.242Z,14.94
2022-11-10T10:32:16.645Z,14.73
2022-11-10T10:34:44.832Z,14.33
2022-11-10T10:37:41.784Z,13.93
2022-11-10T10:40:14.207Z,14.41
2022-11-10T10:42:41.349Z,13.94
2022-11-10T10:45:29.235Z,14.10
2022-11-10T10:47:56.815Z,14.01
2022-11-10T11:43:29.920Z,13.70
2022-11-10T11:46:16.978Z,13.70
2022-11-10T11:48:51.435Z,12.73
2022-11-10T11:51:37.595Z,12.61
2022-11-10T11:54:33.803Z,12.93
2022-11-10T11:57:24.507Z,12.43
2022-11-10T12:00:10.976Z,12.29
2022-11-10T12:03:01.518Z,12.31
2022-11-10T12:05:31.509Z,12.36
2022-11-10T12:08:06.470Z,12.58
2022-11-10T12:14:17.018Z,12.85
2022-11-10T12:16:57.194Z,13.34
2022-11-10T12:19:51.367Z,13.09
2022-11-10T12:22:39.107Z,13.23
2022-11-10T12:25:30.859Z,13.43
2022-11-10T12:28:25.839Z,13.07
2022-11-10T12:31:01.461Z,13.07
2022-11-10T12:33:38.866Z,13.45
2022-11-10T12:36:08.820Z,13.37
2022-11-10T12:39:08.460Z,13.11
2022-11-10T12:41:40.177Z,12.96
2022-11-10T12:44:21.658Z,13.07
2022-11-10T12:46:52.254Z,13.48
2022-11-10T12:49:31.414Z,13.33
2022-11-10T12:52:15.907Z,13.39
2022-11-10T12:54:44.428Z,13.60
2022-11-10T12:57:18.585Z,13.51
2022-11-10T13:00:01.544Z,13.81
2022-11-10T13:02:41.218Z,13.61
2022-11-10T13:05:14.012Z,13.71
2022-11-10T13:07:47.203Z,13.00
2022-11-10T13:10:24.896Z,13.33
2022-11-10T13:13:18.083Z,13.20
2022-11-10T13:15:44.877Z,13.31
2022-11-10T13:18:12.230Z,13.41
2022-11-10T13:20:39.010Z,13.31
2022-11-10T13:23:24.136Z,13.72
2022-11-10T13:26:07.903Z,13.59
2022-11-10T13:28:47.112Z,13.81
2022-11-10T13:31:29.438Z,13.74
2022-11-10T13:34:14.568Z,14.13
2022-11-10T13:36:45.776Z,14.18
2022-11-10T13:39:17.048Z,14.20
2022-11-10T13:41:48.274Z,14.36
2022-11-10T13:44:36.337Z,14.32
2022-11-10T13:47:09.332Z,14.45
2022-11-10T13:49:50.341Z,14.39
2022-11-10T13:55:28.256Z,14.54
2022-11-10T14:00:49.481Z,14.23
2022-11-10T14:03:53.556Z,14.23
2022-11-10T14:06:40.500Z,14.22
2022-11-10T14:09:29.261Z,14.14
2022-11-10T14:12:07.891Z,14.03
2022-11-10T14:14:34.709Z,14.02
2022-11-10T14:17:01.347Z,13.84
2022-11-10T14:19:34.438Z,13.84
2022-11-10T14:22:16.306Z,13.87
2022-11-10T14:24:54.315Z,13.80
2022-11-10T14:27:24.435Z,13.28
2022-11-10T14:30:09.116Z,13.58
2022-11-10T14:32:35.966Z,12.98
2022-11-10T14:35:02.654Z,12.77
2022-11-10T14:37:29.862Z,13.78
2022-11-10T14:40:00.833Z,13.32
2022-11-10T14:42:30.722Z,13.60
2022-11-10T14:45:18.759Z,13.58
2022-11-10T14:47:55.117Z,13.33
2022-11-10T14:50:33.203Z,13.38
2022-11-10T14:53:07.590Z,13.33
2022-11-10T14:55:35.822Z,12.41
2022-11-10T14:58:13.627Z,12.98
2022-11-10T15:00:41.590Z,12.71
2022-11-10T15:03:11.871Z,13.10
2022-11-10T15:05:39.038Z,13.05
2022-11-10T15:08:06.368Z,12.72
2022-11-10T15:10:41.708Z,13.35
2022-11-10T15:13:14.460Z,12.77
2022-11-10T15:15:42.034Z,12.84
2022-11-10T15:18:26.189Z,12.67
2022-11-10T15:21:01.890Z,12.44
2022-11-10T15:23:36.607Z,12.39
2022-11-10T15:26:04.913Z,12.37
2022-11-10T15:28:36.362Z,12.36
2022-11-10T15:31:06.198Z,12.60
2022-11-10T15:33:35.196Z,12.69
2022-11-10T15:36:32.352Z,12.15
2022-11-10T15:39:20.271Z,12.34
2022-11-10T15:41:48.278Z,12.04
2022-11-10T15:44:24.577Z,12.60
2022-11-10T15:46:53.029Z,12.72
2022-11-10T15:49:30.835Z,12.63
2022-11-10T15:52:06.816Z,12.47
2022-11-10T15:54:35.447Z,12.68
2022-11-10T15:57:02.331Z,12.90
2022-11-10T15:59:29.798Z,12.96
2022-11-10T16:01:56.886Z,12.99
2022-11-10T16:04:27.145Z,12.82
2022-11-10T16:06:54.033Z,12.78
2022-11-10T16:09:21.020Z,12.77
2022-11-10T16:11:48.010Z,12.74
2022-11-10T16:14:16.167Z,12.82
2022-11-10T16:16:44.506Z,12.49
2022-11-10T16:19:12.091Z,12.81
2022-11-10T16:21:39.179Z,12.57
2022-11-10T16:24:06.398Z,11.97
2022-11-10T16:26:33.822Z,12.03
2022-11-10T16:29:00.751Z,12.20
2022-11-10T16:31:27.877Z,12.16
2022-11-10T16:33:54.694Z,12.88
2022-11-10T16:36:21.358Z,12.18
2022-11-10T16:38:49.410Z,12.46
2022-11-10T16:41:16.548Z,11.92
2022-11-10T16:43:43.448Z,12.12
2022-11-10T16:46:24.909Z,12.13
2022-11-10T16:48:54.860Z,11.73
2022-11-10T16:51:31.364Z,11.48
2022-11-10T16:53:59.700Z,11.89
2022-11-10T16:56:27.464Z,11.99
2022-11-10T16:59:01.217Z,12.04
2022-11-10T17:01:29.739Z,11.67
2022-11-10T17:03:59.247Z,11.96
2022-11-10T17:06:27.886Z,11.69
2022-11-10T17:08:59.433Z,11.66
2022-11-10T17:11:26.724Z,11.54
2022-11-10T17:13:53.589Z,11.57
2022-11-10T17:16:22.286Z,11.54
2022-11-10T17:18:49.466Z,11.53
2022-11-10T17:21:16.476Z,11.30
2022-11-10T17:23:43.360Z,11.38
2022-11-10T17:26:14.955Z,11.45
2022-11-10T17:28:42.846Z,11.23
2022-11-10T17:31:09.687Z,10.97
2022-11-10T17:33:36.342Z,11.20
2022-11-10T17:36:05.248Z,11.27
2022-11-10T17:38:33.174Z,11.06
2022-11-10T17:41:00.088Z,10.90
2022-11-10T17:43:27.018Z,10.97
2022-11-10T17:45:53.878Z,11.14
2022-11-10T17:48:21.449Z,11.04
2022-11-10T17:50:48.384Z,11.26
2022-11-10T17:53:23.823Z,11.62
2022-11-10T17:55:51.267Z,11.97
2022-11-10T17:58:18.495Z,11.40
2022-11-10T18:00:46.201Z,11.25
2022-11-10T18:03:18.265Z,11.09
2022-11-10T18:05:45.660Z,11.03
2022-11-10T18:08:13.585Z,11.04
2022-11-10T18:10:47.880Z,10.94
2022-11-10T18:13:15.261Z,10.76
2022-11-10T18:15:44.037Z,10.99
2022-11-10T18:18:15.228Z,11.10
2022-11-10T18:20:42.384Z,11.49
2022-11-10T18:23:11.696Z,10.74
2022-11-10T18:25:40.104Z,10.48
2022-11-10T18:28:07.186Z,10.73
2022-11-10T18:30:35.429Z,10.67
2022-11-10T18:33:03.332Z,10.57
2022-11-10T18:35:30.370Z,10.45
2022-11-10T18:37:58.357Z,10.55
2022-11-10T18:40:25.303Z,10.69
2022-11-10T18:42:56.861Z,10.75
2022-11-10T18:45:24.433Z,10.88
2022-11-10T18:47:51.927Z,10.67
2022-11-10T18:50:20.096Z,10.61
2022-11-10T18:52:47.030Z,10.32
2022-11-10T18:55:14.095Z,10.50
2022-11-10T18:57:41.012Z,10.49
2022-11-10T19:00:08.605Z,10.42
2022-11-10T19:02:35.537Z,10.54
2022-11-10T19:05:02.686Z,10.73
2022-11-10T19:07:30.920Z,10.71
2022-11-10T19:09:57.828Z,10.47
2022-11-10T19:12:26.755Z,10.50
2022-11-10T19:14:53.809Z,10.72
2022-11-10T19:17:20.725Z,10.69
2022-11-10T19:19:50.838Z,10.82
2022-11-10T19:22:20.540Z,10.67
2022-11-10T19:25:06.371Z,10.59
2022-11-10T19:27:34.243Z,10.70
2022-11-10T19:30:01.121Z,10.92
2022-11-10T19:32:27.754Z,11.01
2022-11-10T19:34:55.828Z,10.38
2022-11-10T19:37:22.712Z,11.07
2022-11-10T19:39:49.563Z,10.92
2022-11-10T19:42:16.204Z,11.36
2022-11-10T19:44:43.069Z,11.77
2022-11-10T19:47:09.701Z,10.76
2022-11-10T19:49:38.791Z,11.17
2022-11-10T19:52:05.835Z,11.26
2022-11-10T19:54:32.675Z,10.77
2022-11-10T19:56:59.525Z,10.96
2022-11-10T19:59:26.383Z,11.56
2022-11-10T20:01:53.834Z,11.50
2022-11-10T20:04:20.808Z,11.46
2022-11-10T20:06:47.760Z,11.66
2022-11-10T20:09:14.678Z,11.63
2022-11-10T20:11:41.338Z,11.50
2022-11-10T20:14:08.213Z,11.25
2022-11-10T20:16:34.925Z,10.95
2022-11-10T20:19:01.775Z,10.89
2022-11-10T20:21:28.426Z,11.01
2022-11-10T20:23:56.208Z,11.43
2022-11-10T20:26:24.228Z,11.73
2022-11-10T20:28:52.154Z,11.66
2022-11-10T20:31:22.296Z,11.32
2022-11-10T20:33:49.783Z,11.48
2022-11-10T20:36:27.947Z,11.45
2022-11-10T20:38:56.134Z,11.35
2022-11-10T20:41:25.458Z,11.44
2022-11-10T20:43:52.526Z,11.49
2022-11-10T20:49:08.189Z,11.76
2022-11-10T20:51:35.044Z,11.70
2022-11-10T20:54:01.882Z,11.16
2022-11-10T20:56:30.084Z,10.88
2022-11-10T20:58:59.252Z,10.76
2022-11-10T21:01:26.331Z,11.53
2022-11-10T21:03:53.436Z,11.60
2022-11-10T21:06:20.341Z,11.41
2022-11-10T21:08:47.175Z,11.47
2022-11-10T21:11:33.736Z,11.14
2022-11-10T21:14:01.660Z,10.70
2022-11-10T21:16:28.896Z,11.15
2022-11-10T21:18:56.752Z,10.80
2022-11-10T21:21:34.137Z,10.82
2022-11-10T21:24:01.262Z,10.70
2022-11-10T21:26:28.289Z,10.37
2022-11-10T21:28:55.221Z,10.41
2022-11-10T21:31:22.066Z,10.97
2022-11-10T21:33:48.767Z,10.97
2022-11-10T21:36:15.866Z,10.88
2022-11-10T21:38:46.498Z,10.95
2022-11-10T21:41:13.843Z,11.45
2022-11-10T21:43:41.290Z,10.92
2022-11-10T21:46:08.433Z,11.08
2022-11-10T21:48:35.625Z,10.76
2022-11-10T21:51:03.453Z,9.95
2022-11-10T21:53:30.738Z,10.75
2022-11-10T21:56:05.424Z,10.69
2022-11-10T21:58:35.228Z,10.70
2022-11-10T22:01:23.859Z,10.84
2022-11-10T22:03:50.826Z,11.28
2022-11-10T22:06:18.263Z,10.97
2022-11-10T22:08:46.602Z,10.77
2022-11-10T22:11:34.223Z,10.72
2022-11-10T22:14:19.900Z,10.78
2022-11-10T22:17:09.753Z,11.11
2022-11-10T22:19:37.423Z,10.89
2022-11-10T22:22:04.575Z,10.71
2022-11-10T22:24:31.899Z,10.85
2022-11-10T22:27:03.641Z,10.75
2022-11-10T22:29:33.460Z,10.76
2022-11-10T22:32:01.043Z,10.69
2022-11-10T22:34:28.001Z,10.40
2022-11-10T22:36:54.850Z,10.32
2022-11-10T22:39:21.503Z,10.32
2022-11-10T22:42:07.486Z,9.93
2022-11-10T22:44:34.452Z,9.81
2022-11-10T22:47:01.321Z,9.40
2022-11-10T22:49:27.982Z,9.46
2022-11-10T22:51:55.623Z,9.67
2022-11-10T22:54:24.572Z,9.94
2022-11-10T22:56:52.099Z,9.76
2022-11-10T22:59:19.562Z,9.93
2022-11-10T23:01:46.615Z,9.70
2022-11-10T23:04:16.112Z,9.95
2022-11-10T23:06:43.672Z,10.12
2022-11-10T23:09:10.715Z,10.22
2022-11-10T23:11:37.617Z,10.00
2022-11-10T23:14:04.548Z,9.99
2022-11-10T23:16:34.718Z,10.28
2022-11-10T23:19:01.741Z,10.30
2022-11-10T23:21:30.539Z,10.01
2022-11-10T23:23:57.460Z,10.31
2022-11-10T23:26:34.102Z,10.00
2022-11-10T23:29:01.014Z,9.92
2022-11-10T23:31:28.769Z,10.11
2022-11-10T23:33:56.456Z,9.89
2022-11-10T23:36:24.877Z,9.96
2022-11-10T23:38:51.952Z,9.68
2022-11-10T23:41:20.874Z,9.22
2022-11-10T23:43:47.818Z,9.38
2022-11-10T23:46:15.097Z,9.26
2022-11-10T23:48:42.729Z,9.13
2022-11-10T23:51:12.185Z,8.89
2022-11-10T23:53:39.356Z,9.24
2022-11-10T23:56:10.573Z,9.35
2022-11-10T23:58:38.434Z,8.99
